createdAt,value
2022-11-03T00:02:05.239Z,79.40
2022-11-03T00:07:33.239Z,79.50
2022-11-03T00:13:00.970Z,79.40
2022-11-03T00:18:28.772Z,79.50
2022-11-03T00:23:56.798Z,79.60
2022-11-03T00:29:27.270Z,79.50
2022-11-03T00:34:56.386Z,79.60
2022-11-03T00:40:24.155Z,79.60
2022-11-03T00:45:52.371Z,80.30
2022-11-03T00:51:26.091Z,79.70
2022-11-03T00:56:53.858Z,79.70
2022-11-03T01:02:21.832Z,79.80
2022-11-03T01:07:49.732Z,79.80
2022-11-03T01:13:17.542Z,79.90
2022-11-03T01:18:45.323Z,79.80
2022-11-03T01:24:13.111Z,79.90
2022-11-03T01:29:41.632Z,80.00
2022-11-03T01:35:09.493Z,80.10
2022-11-03T01:40:37.294Z,80.20
2022-11-03T01:46:10.920Z,80.20
2022-11-03T01:51:39.598Z,80.50
2022-11-03T01:57:16.814Z,80.70
2022-11-03T02:02:45.571Z,80.80
2022-11-03T02:08:23.912Z,80.90
2022-11-03T02:13:52.011Z,81.00
2022-11-03T02:19:37.901Z,80.90
2022-11-03T02:25:33.138Z,81.00
2022-11-03T02:31:16.902Z,81.00
2022-11-03T02:36:56.680Z,81.00
2022-11-03T02:42:25.533Z,81.00
2022-11-03T02:47:59.193Z,81.00
2022-11-03T02:53:30.450Z,81.00
2022-11-03T02:59:10.186Z,81.10
2022-11-03T03:04:55.150Z,81.00
2022-11-03T03:10:28.115Z,81.00
2022-11-03T03:16:24.929Z,81.00
2022-11-03T03:21:57.781Z,81.00
2022-11-03T03:27:29.050Z,81.00
2022-11-03T03:32:59.407Z,81.10
2022-11-03T03:38:35.737Z,81.10
2022-11-03T03:44:08.362Z,81.10
2022-11-03T03:49:36.245Z,81.20
2022-11-03T03:55:12.520Z,81.10
2022-11-03T04:00:42.869Z,81.10
2022-11-03T04:06:10.671Z,81.10
2022-11-03T04:11:57.313Z,81.20
2022-11-03T04:17:43.417Z,81.20
2022-11-03T04:23:11.354Z,81.20
2022-11-03T04:28:39.183Z,81.30
2022-11-03T04:34:12.988Z,81.30
2022-11-03T04:39:41.561Z,81.30
2022-11-03T04:45:32.293Z,81.30
2022-11-03T04:51:03.173Z,81.30
2022-11-03T04:56:31.164Z,81.40
2022-11-03T05:01:59.608Z,81.40
2022-11-03T05:07:36.855Z,81.50
2022-11-03T05:13:17.051Z,81.60
2022-11-03T05:18:48.997Z,81.70
2022-11-03T05:24:19.522Z,81.90
2022-11-03T05:29:48.511Z,82.10
2022-11-03T05:35:23.763Z,82.30
2022-11-03T05:40:54.339Z,82.50
2022-11-03T05:46:22.315Z,82.70
2022-11-03T05:51:50.400Z,82.80
2022-11-03T05:57:19.070Z,83.00
2022-11-03T06:02:49.783Z,83.20
2022-11-03T06:08:34.678Z,83.20
2022-11-03T06:14:13.496Z,83.50
2022-11-03T06:19:49.790Z,83.50
2022-11-03T06:25:37.580Z,83.60
2022-11-03T06:31:29.383Z,83.70
2022-11-03T06:36:59.502Z,83.80
2022-11-03T06:42:32.338Z,83.80
2022-11-03T06:48:01.416Z,83.90
2022-11-03T06:53:34.067Z,83.90
2022-11-03T06:59:01.957Z,84.00
2022-11-03T07:04:30.817Z,83.90
2022-11-03T07:09:58.587Z,83.90
2022-11-03T07:15:32.201Z,84.00
2022-11-03T07:21:26.987Z,83.90
2022-11-03T07:27:13.060Z,83.80
2022-11-03T07:32:40.811Z,83.90
2022-11-03T07:38:19.351Z,83.90
2022-11-03T07:43:56.357Z,83.90
2022-11-03T07:49:30.288Z,83.90
2022-11-03T07:54:59.851Z,83.90
2022-11-03T08:00:27.545Z,83.80
2022-11-03T08:05:55.525Z,83.90
2022-11-03T08:11:27.904Z,83.90
2022-11-03T08:16:57.339Z,83.90
2022-11-03T08:22:26.208Z,84.00
2022-11-03T08:27:54.261Z,84.00
2022-11-03T08:33:22.151Z,84.10
2022-11-03T08:38:50.986Z,84.30
2022-11-03T08:44:19.177Z,84.40
2022-11-03T08:49:46.949Z,84.40
2022-11-03T08:55:14.836Z,84.50
2022-11-03T09:00:42.848Z,84.50
2022-11-03T09:06:10.963Z,84.70
2022-11-03T09:11:38.759Z,84.80
2022-11-03T09:17:07.314Z,84.90
2022-11-03T09:22:35.087Z,84.90
2022-11-03T09:28:02.951Z,85.00
2022-11-03T09:33:30.929Z,84.00
2022-11-03T09:38:58.752Z,84.20
2022-11-03T09:44:27.123Z,84.30
2022-11-03T09:49:55.212Z,84.40
2022-11-03T09:55:26.974Z,84.20
2022-11-03T10:00:54.820Z,84.50
2022-11-03T10:06:23.942Z,84.40
2022-11-03T10:11:54.348Z,84.50
2022-11-03T10:17:27.359Z,84.30
2022-11-03T10:22:55.839Z,84.10
2022-11-03T10:28:28.693Z,83.90
2022-11-03T10:33:56.749Z,84.30
2022-11-03T10:39:31.219Z,83.80
2022-11-03T10:45:20.473Z,83.50
2022-11-03T10:50:48.297Z,83.50
2022-11-03T10:56:16.566Z,83.30
2022-11-03T11:01:44.689Z,83.20
2022-11-03T11:07:27.270Z,83.10
2022-11-03T11:13:21.869Z,83.20
2022-11-03T11:18:55.383Z,82.80
2022-11-03T11:24:44.959Z,82.70
2022-11-03T11:30:22.250Z,82.50
2022-11-03T11:35:55.210Z,82.20
2022-11-03T11:42:14.702Z,81.80
2022-11-03T11:47:48.021Z,81.80
2022-11-03T11:53:24.005Z,81.60
2022-11-03T11:58:55.582Z,81.30
2022-11-03T12:04:28.126Z,81.20
2022-11-03T12:09:55.978Z,81.00
2022-11-03T12:15:56.693Z,80.90
2022-11-03T12:21:50.278Z,80.70
2022-11-03T12:27:25.582Z,80.50
2022-11-03T12:32:53.524Z,80.60
2022-11-03T12:38:21.540Z,80.30
2022-11-03T12:43:51.446Z,80.20
2022-11-03T12:49:19.502Z,80.10
2022-11-03T12:54:47.467Z,80.20
2022-11-03T13:00:16.156Z,80.30
2022-11-03T13:05:44.052Z,80.20
2022-11-03T13:11:30.716Z,80.10
2022-11-03T13:16:58.661Z,80.00
2022-11-03T13:22:26.487Z,80.00
2022-11-03T13:27:54.837Z,80.00
2022-11-03T13:33:22.960Z,79.90
2022-11-03T13:38:50.709Z,79.80
2022-11-03T13:44:18.536Z,79.50
2022-11-03T13:50:13.179Z,79.50
2022-11-03T14:01:09.062Z,80.00
2022-11-03T14:06:36.926Z,80.00
2022-11-03T14:12:23.658Z,80.00
2022-11-03T14:17:51.425Z,80.30
2022-11-03T14:23:19.312Z,80.60
2022-11-03T14:28:47.022Z,80.70
2022-11-03T14:34:14.964Z,81.20
2022-11-03T14:39:42.983Z,81.30
2022-11-03T14:45:11.095Z,81.70
2022-11-03T14:50:38.883Z,81.60
2022-11-03T14:56:07.033Z,81.80
2022-11-03T15:07:04.811Z,81.60
2022-11-03T15:12:32.610Z,82.30
2022-11-03T15:18:03.034Z,82.50
2022-11-03T15:30:24.253Z,82.80
2022-11-03T15:41:23.568Z,82.50
2022-11-03T15:46:51.303Z,82.50
2022-11-03T15:52:19.154Z,83.30
2022-11-03T15:57:50.082Z,82.90
2022-11-03T16:03:28.279Z,83.00
2022-11-03T16:14:37.712Z,83.60
2022-11-03T16:20:06.685Z,83.70
2022-11-03T16:25:35.956Z,83.40
2022-11-03T16:31:04.834Z,83.40
2022-11-03T16:36:40.100Z,83.50
2022-11-03T16:42:08.225Z,84.20
2022-11-03T16:47:35.968Z,84.30
2022-11-03T16:53:03.920Z,83.70
2022-11-03T16:58:31.788Z,84.90
2022-11-03T17:03:59.864Z,84.10
2022-11-03T17:09:27.676Z,84.70
2022-11-03T17:14:56.941Z,84.70
2022-11-03T17:20:25.083Z,84.70
2022-11-03T17:25:53.009Z,85.20
2022-11-03T17:31:21.147Z,85.00
2022-11-03T17:36:49.061Z,85.00
2022-11-03T17:42:24.878Z,85.20
2022-11-03T17:47:52.944Z,85.10
2022-11-03T17:53:31.400Z,85.30
2022-11-03T17:58:59.360Z,86.30
2022-11-03T18:04:27.238Z,85.80
2022-11-03T18:09:56.329Z,86.40
2022-11-03T18:15:26.117Z,86.50
2022-11-03T18:20:54.674Z,86.50
2022-11-03T18:26:25.755Z,86.60
2022-11-03T18:31:53.717Z,86.60
2022-11-03T18:37:21.457Z,86.70
2022-11-03T18:42:49.209Z,85.80
2022-11-03T18:48:21.184Z,86.80
2022-11-03T18:53:49.136Z,86.90
2022-11-03T18:59:25.852Z,86.90
2022-11-03T19:04:54.411Z,86.90
2022-11-03T19:10:22.643Z,86.90
2022-11-03T19:15:51.628Z,87.00
2022-11-03T19:21:24.463Z,87.60
2022-11-03T19:27:02.496Z,87.00
2022-11-03T19:32:39.836Z,87.10
2022-11-03T19:38:14.723Z,85.70
2022-11-03T19:43:42.888Z,86.30
2022-11-03T19:49:15.243Z,85.90
2022-11-03T19:54:47.336Z,86.50
2022-11-03T20:00:17.749Z,86.40
2022-11-03T20:05:49.585Z,86.50
2022-11-03T20:11:18.880Z,86.50
2022-11-03T20:16:46.696Z,86.50
2022-11-03T20:22:18.330Z,86.50
2022-11-03T20:27:46.238Z,86.50
2022-11-03T20:33:17.408Z,86.60
2022-11-03T20:38:59.370Z,86.60
2022-11-03T20:44:27.243Z,86.70
2022-11-03T20:49:55.311Z,86.80
2022-11-03T20:55:26.629Z,86.90
2022-11-03T21:00:54.338Z,87.00
2022-11-03T21:06:22.383Z,88.10
2022-11-03T21:11:52.632Z,88.00
2022-11-03T21:17:38.762Z,87.10
2022-11-03T21:23:23.934Z,87.10
2022-11-03T21:28:52.278Z,87.20
2022-11-03T21:34:22.377Z,87.20
2022-11-03T21:39:50.128Z,87.20
2022-11-03T21:45:18.837Z,87.20
2022-11-03T21:50:46.956Z,86.70
2022-11-03T21:56:15.767Z,87.30
2022-11-03T22:01:44.044Z,87.20
2022-11-03T22:07:12.314Z,87.30
2022-11-03T22:12:40.472Z,87.30
2022-11-03T22:18:08.729Z,87.40
2022-11-03T22:23:55.130Z,87.50
2022-11-03T22:29:41.752Z,87.50
2022-11-03T22:35:30.474Z,87.50
2022-11-03T22:41:16.796Z,87.60
2022-11-03T22:46:44.530Z,86.90
2022-11-03T22:52:13.862Z,87.60
2022-11-03T22:57:43.273Z,87.80
2022-11-03T23:03:11.605Z,87.70
2022-11-03T23:08:41.831Z,87.10
2022-11-03T23:14:11.688Z,87.80
2022-11-03T23:19:57.874Z,88.00
2022-11-03T23:25:25.866Z,88.10
2022-11-03T23:30:53.686Z,87.40
2022-11-03T23:36:21.488Z,88.00
2022-11-03T23:41:51.324Z,87.80
2022-11-03T23:47:37.473Z,86.40
2022-11-03T23:53:05.236Z,86.90
2022-11-03T23:58:33.004Z,85.70
